sensor_id;sensor_type;location;lat;lon;timestamp;P1;durP1;ratioP1;P2;durP2;ratioP2
62574;SDS011;70119;45.638;11.714;2023-11-21T00:01:18;11.27;;;7.70;;
62574;SDS011;70119;45.638;11.714;2023-11-21T00:03:44;10.73;;;7.57;;
62574;SDS011;70119;45.638;11.714;2023-11-21T00:06:11;10.63;;;7.47;;
62574;SDS011;70119;45.638;11.714;2023-11-21T00:08:37;10.95;;;7.82;;
62574;SDS011;70119;45.638;11.714;2023-11-21T00:11:03;10.30;;;7.68;;
62574;SDS011;70119;45.638;11.714;2023-11-21T00:13:31;11.20;;;7.72;;
62574;SDS011;70119;45.638;11.714;2023-11-21T00:15:57;11.02;;;8.00;;
62574;SDS011;70119;45.638;11.714;2023-11-21T00:18:24;11.00;;;7.60;;
62574;SDS011;70119;45.638;11.714;2023-11-21T00:20:49;12.02;;;8.05;;
62574;SDS011;70119;45.638;11.714;2023-11-21T00:23:15;12.27;;;7.90;;
62574;SDS011;70119;45.638;11.714;2023-11-21T00:25:41;15.48;;;8.00;;
62574;SDS011;70119;45.638;11.714;2023-11-21T00:28:07;11.75;;;8.00;;
62574;SDS011;70119;45.638;11.714;2023-11-21T00:30:33;12.68;;;8.05;;
62574;SDS011;70119;45.638;11.714;2023-11-21T00:32:59;11.65;;;8.43;;
62574;SDS011;70119;45.638;11.714;2023-11-21T00:35:25;12.20;;;8.43;;
62574;SDS011;70119;45.638;11.714;2023-11-21T00:37:51;11.23;;;8.10;;
62574;SDS011;70119;45.638;11.714;2023-11-21T00:40:17;11.52;;;8.25;;
62574;SDS011;70119;45.638;11.714;2023-11-21T00:42:46;10.88;;;7.80;;
62574;SDS011;70119;45.638;11.714;2023-11-21T00:45:12;10.60;;;7.88;;
62574;SDS011;70119;45.638;11.714;2023-11-21T00:47:38;10.55;;;7.72;;
62574;SDS011;70119;45.638;11.714;2023-11-21T00:50:05;11.27;;;7.90;;
62574;SDS011;70119;45.638;11.714;2023-11-21T00:52:32;11.65;;;8.20;;
62574;SDS011;70119;45.638;11.714;2023-11-21T00:54:58;12.38;;;8.10;;
62574;SDS011;70119;45.638;11.714;2023-11-21T00:57:25;11.20;;;8.05;;
62574;SDS011;70119;45.638;11.714;2023-11-21T00:59:52;12.75;;;8.25;;
62574;SDS011;70119;45.638;11.714;2023-11-21T01:02:18;10.60;;;7.60;;
62574;SDS011;70119;45.638;11.714;2023-11-21T01:04:43;10.10;;;7.70;;
62574;SDS011;70119;45.638;11.714;2023-11-21T01:07:10;10.93;;;7.85;;
62574;SDS011;70119;45.638;11.714;2023-11-21T01:09:36;10.95;;;7.78;;
62574;SDS011;70119;45.638;11.714;2023-11-21T01:12:02;10.88;;;7.85;;
62574;SDS011;70119;45.638;11.714;2023-11-21T01:14:28;10.85;;;7.63;;
62574;SDS011;70119;45.638;11.714;2023-11-21T01:16:54;11.40;;;7.90;;
62574;SDS011;70119;45.638;11.714;2023-11-21T01:19:20;11.98;;;7.68;;
62574;SDS011;70119;45.638;11.714;2023-11-21T01:21:46;11.00;;;7.90;;
62574;SDS011;70119;45.638;11.714;2023-11-21T01:24:12;11.10;;;8.10;;
62574;SDS011;70119;45.638;11.714;2023-11-21T01:26:38;11.55;;;7.63;;
62574;SDS011;70119;45.638;11.714;2023-11-21T01:29:04;11.85;;;7.80;;
62574;SDS011;70119;45.638;11.714;2023-11-21T01:31:30;12.48;;;8.13;;
62574;SDS011;70119;45.638;11.714;2023-11-21T01:33:56;10.40;;;7.28;;
62574;SDS011;70119;45.638;11.714;2023-11-21T01:36:22;10.57;;;7.68;;
62574;SDS011;70119;45.638;11.714;2023-11-21T01:38:48;11.57;;;7.78;;
62574;SDS011;70119;45.638;11.714;2023-11-21T01:41:14;10.45;;;7.50;;
62574;SDS011;70119;45.638;11.714;2023-11-21T01:43:40;11.15;;;7.75;;
62574;SDS011;70119;45.638;11.714;2023-11-21T01:46:06;10.82;;;7.80;;
62574;SDS011;70119;45.638;11.714;2023-11-21T01:48:34;10.65;;;7.75;;
62574;SDS011;70119;45.638;11.714;2023-11-21T01:51:00;10.77;;;8.02;;
62574;SDS011;70119;45.638;11.714;2023-11-21T01:53:27;10.45;;;7.47;;
62574;SDS011;70119;45.638;11.714;2023-11-21T01:55:54;11.65;;;7.75;;
62574;SDS011;70119;45.638;11.714;2023-11-21T01:58:21;9.23;;;7.03;;
62574;SDS011;70119;45.638;11.714;2023-11-21T02:00:48;10.32;;;7.50;;
62574;SDS011;70119;45.638;11.714;2023-11-21T02:03:16;11.90;;;7.80;;
62574;SDS011;70119;45.638;11.714;2023-11-21T02:05:42;10.65;;;7.32;;
62574;SDS011;70119;45.638;11.714;2023-11-21T02:08:08;11.40;;;7.30;;
62574;SDS011;70119;45.638;11.714;2023-11-21T02:10:34;11.38;;;7.60;;
62574;SDS011;70119;45.638;11.714;2023-11-21T02:13:02;10.38;;;7.68;;
62574;SDS011;70119;45.638;11.714;2023-11-21T02:15:28;9.68;;;7.30;;
62574;SDS011;70119;45.638;11.714;2023-11-21T02:17:54;9.88;;;7.60;;
62574;SDS011;70119;45.638;11.714;2023-11-21T02:20:23;10.90;;;7.82;;
62574;SDS011;70119;45.638;11.714;2023-11-21T02:22:54;11.23;;;7.60;;
62574;SDS011;70119;45.638;11.714;2023-11-21T02:25:31;9.75;;;7.22;;
62574;SDS011;70119;45.638;11.714;2023-11-21T02:28:01;10.13;;;7.40;;
62574;SDS011;70119;45.638;11.714;2023-11-21T02:30:28;10.32;;;7.50;;
62574;SDS011;70119;45.638;11.714;2023-11-21T02:32:55;11.02;;;7.50;;
62574;SDS011;70119;45.638;11.714;2023-11-21T02:35:24;10.32;;;7.50;;
62574;SDS011;70119;45.638;11.714;2023-11-21T02:37:51;11.98;;;7.60;;
62574;SDS011;70119;45.638;11.714;2023-11-21T02:40:17;10.02;;;7.32;;
62574;SDS011;70119;45.638;11.714;2023-11-21T02:42:45;10.15;;;7.53;;
62574;SDS011;70119;45.638;11.714;2023-11-21T02:45:13;10.80;;;7.47;;
62574;SDS011;70119;45.638;11.714;2023-11-21T02:47:41;11.50;;;7.60;;
62574;SDS011;70119;45.638;11.714;2023-11-21T02:50:08;10.10;;;7.20;;
62574;SDS011;70119;45.638;11.714;2023-11-21T02:52:37;10.23;;;7.47;;
62574;SDS011;70119;45.638;11.714;2023-11-21T02:55:05;10.95;;;7.60;;
62574;SDS011;70119;45.638;11.714;2023-11-21T02:57:34;11.65;;;7.70;;
62574;SDS011;70119;45.638;11.714;2023-11-21T03:00:00;10.02;;;7.13;;
62574;SDS011;70119;45.638;11.714;2023-11-21T03:02:26;9.02;;;7.00;;
62574;SDS011;70119;45.638;11.714;2023-11-21T03:04:52;9.68;;;6.93;;
62574;SDS011;70119;45.638;11.714;2023-11-21T03:07:18;9.60;;;7.15;;
62574;SDS011;70119;45.638;11.714;2023-11-21T03:09:44;10.50;;;7.28;;
62574;SDS011;70119;45.638;11.714;2023-11-21T03:12:11;10.05;;;7.10;;
62574;SDS011;70119;45.638;11.714;2023-11-21T03:14:41;10.05;;;6.88;;
62574;SDS011;70119;45.638;11.714;2023-11-21T03:17:06;9.60;;;6.90;;
62574;SDS011;70119;45.638;11.714;2023-11-21T03:19:32;9.63;;;6.90;;
62574;SDS011;70119;45.638;11.714;2023-11-21T03:21:58;9.27;;;6.70;;
62574;SDS011;70119;45.638;11.714;2023-11-21T03:24:24;10.10;;;7.18;;
62574;SDS011;70119;45.638;11.714;2023-11-21T03:26:51;9.65;;;6.82;;
62574;SDS011;70119;45.638;11.714;2023-11-21T03:29:17;9.65;;;7.13;;
62574;SDS011;70119;45.638;11.714;2023-11-21T03:31:43;10.02;;;6.93;;
62574;SDS011;70119;45.638;11.714;2023-11-21T03:34:22;9.95;;;7.25;;
62574;SDS011;70119;45.638;11.714;2023-11-21T03:36:52;9.77;;;7.45;;
62574;SDS011;70119;45.638;11.714;2023-11-21T03:39:21;10.95;;;7.25;;
62574;SDS011;70119;45.638;11.714;2023-11-21T03:41:48;9.45;;;6.80;;
62574;SDS011;70119;45.638;11.714;2023-11-21T03:44:14;9.65;;;6.95;;
62574;SDS011;70119;45.638;11.714;2023-11-21T03:46:40;9.32;;;6.68;;
62574;SDS011;70119;45.638;11.714;2023-11-21T03:49:05;9.98;;;6.60;;
62574;SDS011;70119;45.638;11.714;2023-11-21T03:51:32;9.82;;;6.90;;
62574;SDS011;70119;45.638;11.714;2023-11-21T03:53:59;9.05;;;6.55;;
62574;SDS011;70119;45.638;11.714;2023-11-21T03:56:24;10.30;;;6.70;;
62574;SDS011;70119;45.638;11.714;2023-11-21T03:58:50;9.45;;;6.75;;
62574;SDS011;70119;45.638;11.714;2023-11-21T04:01:20;9.27;;;6.70;;
62574;SDS011;70119;45.638;11.714;2023-11-21T04:03:50;9.20;;;6.47;;
62574;SDS011;70119;45.638;11.714;2023-11-21T04:06:16;9.50;;;6.50;;
62574;SDS011;70119;45.638;11.714;2023-11-21T04:08:46;9.85;;;7.10;;
62574;SDS011;70119;45.638;11.714;2023-11-21T04:11:12;9.38;;;7.05;;
62574;SDS011;70119;45.638;11.714;2023-11-21T04:13:38;10.00;;;6.68;;
62574;SDS011;70119;45.638;11.714;2023-11-21T04:16:08;8.70;;;6.75;;
62574;SDS011;70119;45.638;11.714;2023-11-21T04:18:38;11.00;;;6.65;;
62574;SDS011;70119;45.638;11.714;2023-11-21T04:21:05;10.32;;;6.90;;
62574;SDS011;70119;45.638;11.714;2023-11-21T04:23:31;9.27;;;6.40;;
62574;SDS011;70119;45.638;11.714;2023-11-21T04:25:57;8.90;;;6.60;;
62574;SDS011;70119;45.638;11.714;2023-11-21T04:28:24;10.40;;;6.78;;
62574;SDS011;70119;45.638;11.714;2023-11-21T04:30:50;8.27;;;6.28;;
62574;SDS011;70119;45.638;11.714;2023-11-21T04:33:16;9.18;;;6.47;;
62574;SDS011;70119;45.638;11.714;2023-11-21T04:35:44;9.50;;;6.55;;
62574;SDS011;70119;45.638;11.714;2023-11-21T04:38:10;8.60;;;6.18;;
62574;SDS011;70119;45.638;11.714;2023-11-21T04:40:40;9.27;;;6.88;;
62574;SDS011;70119;45.638;11.714;2023-11-21T04:43:12;8.70;;;6.50;;
62574;SDS011;70119;45.638;11.714;2023-11-21T04:45:42;8.88;;;6.50;;
62574;SDS011;70119;45.638;11.714;2023-11-21T04:48:10;9.55;;;6.50;;
62574;SDS011;70119;45.638;11.714;2023-11-21T04:50:37;9.15;;;6.55;;
62574;SDS011;70119;45.638;11.714;2023-11-21T04:53:05;9.18;;;6.65;;
62574;SDS011;70119;45.638;11.714;2023-11-21T04:55:39;9.52;;;6.13;;
62574;SDS011;70119;45.638;11.714;2023-11-21T04:58:07;8.30;;;6.20;;
62574;SDS011;70119;45.638;11.714;2023-11-21T05:00:34;8.55;;;6.22;;
62574;SDS011;70119;45.638;11.714;2023-11-21T05:03:02;8.13;;;6.05;;
62574;SDS011;70119;45.638;11.714;2023-11-21T05:05:29;8.52;;;6.38;;
62574;SDS011;70119;45.638;11.714;2023-11-21T05:07:59;8.50;;;6.25;;
62574;SDS011;70119;45.638;11.714;2023-11-21T05:10:25;8.50;;;6.65;;
62574;SDS011;70119;45.638;11.714;2023-11-21T05:12:50;9.55;;;6.22;;
62574;SDS011;70119;45.638;11.714;2023-11-21T05:15:16;9.77;;;6.55;;
62574;SDS011;70119;45.638;11.714;2023-11-21T05:17:43;8.48;;;6.13;;
62574;SDS011;70119;45.638;11.714;2023-11-21T05:20:11;8.48;;;5.97;;
62574;SDS011;70119;45.638;11.714;2023-11-21T05:22:38;8.68;;;5.97;;
62574;SDS011;70119;45.638;11.714;2023-11-21T05:25:05;9.68;;;6.45;;
62574;SDS011;70119;45.638;11.714;2023-11-21T05:27:35;8.13;;;6.10;;
62574;SDS011;70119;45.638;11.714;2023-11-21T05:30:01;8.02;;;6.00;;
62574;SDS011;70119;45.638;11.714;2023-11-21T05:32:30;9.50;;;6.55;;
62574;SDS011;70119;45.638;11.714;2023-11-21T05:34:56;9.20;;;6.40;;
62574;SDS011;70119;45.638;11.714;2023-11-21T05:37:22;8.68;;;6.10;;
62574;SDS011;70119;45.638;11.714;2023-11-21T05:39:49;8.40;;;5.85;;
62574;SDS011;70119;45.638;11.714;2023-11-21T05:42:14;7.85;;;5.85;;
62574;SDS011;70119;45.638;11.714;2023-11-21T05:44:42;9.75;;;6.30;;
62574;SDS011;70119;45.638;11.714;2023-11-21T05:47:09;9.40;;;6.25;;
62574;SDS011;70119;45.638;11.714;2023-11-21T05:49:35;7.63;;;5.80;;
62574;SDS011;70119;45.638;11.714;2023-11-21T05:52:02;8.43;;;6.13;;
62574;SDS011;70119;45.638;11.714;2023-11-21T05:54:28;8.85;;;6.25;;
62574;SDS011;70119;45.638;11.714;2023-11-21T05:56:54;8.20;;;6.15;;
62574;SDS011;70119;45.638;11.714;2023-11-21T05:59:20;8.57;;;5.95;;
62574;SDS011;70119;45.638;11.714;2023-11-21T06:01:46;8.13;;;6.07;;
62574;SDS011;70119;45.638;11.714;2023-11-21T06:04:13;8.30;;;5.90;;
62574;SDS011;70119;45.638;11.714;2023-11-21T06:06:39;8.10;;;6.03;;
62574;SDS011;70119;45.638;11.714;2023-11-21T06:09:05;9.25;;;6.60;;
62574;SDS011;70119;45.638;11.714;2023-11-21T06:11:34;8.57;;;5.80;;
62574;SDS011;70119;45.638;11.714;2023-11-21T06:14:00;8.95;;;5.93;;
62574;SDS011;70119;45.638;11.714;2023-11-21T06:16:27;8.13;;;5.72;;
62574;SDS011;70119;45.638;11.714;2023-11-21T06:18:54;8.02;;;5.95;;
62574;SDS011;70119;45.638;11.714;2023-11-21T06:21:20;7.75;;;5.63;;
62574;SDS011;70119;45.638;11.714;2023-11-21T06:23:46;8.15;;;5.72;;
62574;SDS011;70119;45.638;11.714;2023-11-21T06:26:12;6.95;;;5.30;;
62574;SDS011;70119;45.638;11.714;2023-11-21T06:28:38;7.60;;;5.60;;
62574;SDS011;70119;45.638;11.714;2023-11-21T06:31:03;9.63;;;5.85;;
62574;SDS011;70119;45.638;11.714;2023-11-21T06:33:33;7.30;;;5.25;;
62574;SDS011;70119;45.638;11.714;2023-11-21T06:35:59;8.20;;;5.63;;
62574;SDS011;70119;45.638;11.714;2023-11-21T06:38:28;7.47;;;5.60;;
62574;SDS011;70119;45.638;11.714;2023-11-21T06:40:57;8.15;;;5.82;;
62574;SDS011;70119;45.638;11.714;2023-11-21T06:43:23;9.25;;;6.00;;
62574;SDS011;70119;45.638;11.714;2023-11-21T06:45:49;8.20;;;5.75;;
62574;SDS011;70119;45.638;11.714;2023-11-21T06:48:15;8.32;;;5.63;;
62574;SDS011;70119;45.638;11.714;2023-11-21T06:50:42;8.32;;;5.30;;
62574;SDS011;70119;45.638;11.714;2023-11-21T06:56:00;8.00;;;5.60;;
62574;SDS011;70119;45.638;11.714;2023-11-21T06:58:26;7.80;;;5.47;;
62574;SDS011;70119;45.638;11.714;2023-11-21T07:00:53;8.23;;;5.78;;
62574;SDS011;70119;45.638;11.714;2023-11-21T07:03:19;7.25;;;5.50;;
62574;SDS011;70119;45.638;11.714;2023-11-21T07:05:46;8.13;;;5.80;;
62574;SDS011;70119;45.638;11.714;2023-11-21T07:08:12;7.72;;;5.53;;
62574;SDS011;70119;45.638;11.714;2023-11-21T07:10:39;7.95;;;5.50;;
62574;SDS011;70119;45.638;11.714;2023-11-21T07:13:05;8.27;;;5.45;;
62574;SDS011;70119;45.638;11.714;2023-11-21T07:15:32;7.88;;;5.35;;
62574;SDS011;70119;45.638;11.714;2023-11-21T07:17:59;8.20;;;5.40;;
62574;SDS011;70119;45.638;11.714;2023-11-21T07:20:25;7.88;;;5.53;;
62574;SDS011;70119;45.638;11.714;2023-11-21T07:22:52;8.15;;;5.53;;
62574;SDS011;70119;45.638;11.714;2023-11-21T07:25:18;7.53;;;5.47;;
62574;SDS011;70119;45.638;11.714;2023-11-21T07:27:44;7.53;;;5.18;;
62574;SDS011;70119;45.638;11.714;2023-11-21T07:30:10;7.97;;;5.25;;
62574;SDS011;70119;45.638;11.714;2023-11-21T07:32:38;7.43;;;5.50;;
62574;SDS011;70119;45.638;11.714;2023-11-21T07:35:04;7.40;;;5.22;;
62574;SDS011;70119;45.638;11.714;2023-11-21T07:37:33;9.35;;;6.10;;
62574;SDS011;70119;45.638;11.714;2023-11-21T07:39:58;7.82;;;5.28;;
62574;SDS011;70119;45.638;11.714;2023-11-21T07:42:24;10.13;;;5.40;;
62574;SDS011;70119;45.638;11.714;2023-11-21T07:44:54;8.23;;;5.05;;
62574;SDS011;70119;45.638;11.714;2023-11-21T07:47:28;7.88;;;5.25;;
62574;SDS011;70119;45.638;11.714;2023-11-21T07:49:54;8.43;;;5.22;;
62574;SDS011;70119;45.638;11.714;2023-11-21T07:52:21;9.23;;;5.13;;
62574;SDS011;70119;45.638;11.714;2023-11-21T07:54:48;8.00;;;4.97;;
62574;SDS011;70119;45.638;11.714;2023-11-21T07:57:13;6.63;;;5.05;;
62574;SDS011;70119;45.638;11.714;2023-11-21T07:59:40;8.38;;;5.60;;
62574;SDS011;70119;45.638;11.714;2023-11-21T08:02:06;8.50;;;5.53;;
62574;SDS011;70119;45.638;11.714;2023-11-21T08:04:33;8.23;;;4.97;;
62574;SDS011;70119;45.638;11.714;2023-11-21T08:07:00;11.50;;;5.90;;
62574;SDS011;70119;45.638;11.714;2023-11-21T08:09:27;7.85;;;5.70;;
62574;SDS011;70119;45.638;11.714;2023-11-21T08:11:53;8.00;;;5.28;;
62574;SDS011;70119;45.638;11.714;2023-11-21T08:14:18;7.90;;;5.35;;
62574;SDS011;70119;45.638;11.714;2023-11-21T08:16:45;9.68;;;5.57;;
62574;SDS011;70119;45.638;11.714;2023-11-21T08:19:11;10.95;;;5.38;;
62574;SDS011;70119;45.638;11.714;2023-11-21T08:21:37;6.90;;;5.18;;
62574;SDS011;70119;45.638;11.714;2023-11-21T08:24:04;9.00;;;5.43;;
62574;SDS011;70119;45.638;11.714;2023-11-21T08:26:31;7.38;;;5.40;;
62574;SDS011;70119;45.638;11.714;2023-11-21T08:28:58;7.82;;;5.13;;
62574;SDS011;70119;45.638;11.714;2023-11-21T08:31:25;7.50;;;5.30;;
62574;SDS011;70119;45.638;11.714;2023-11-21T08:33:51;8.50;;;5.25;;
62574;SDS011;70119;45.638;11.714;2023-11-21T08:36:21;7.28;;;4.95;;
62574;SDS011;70119;45.638;11.714;2023-11-21T08:38:49;7.63;;;5.20;;
62574;SDS011;70119;45.638;11.714;2023-11-21T08:41:17;7.43;;;5.00;;
62574;SDS011;70119;45.638;11.714;2023-11-21T08:43:47;7.25;;;5.35;;
62574;SDS011;70119;45.638;11.714;2023-11-21T08:46:14;7.47;;;5.28;;
62574;SDS011;70119;45.638;11.714;2023-11-21T08:48:43;7.22;;;5.20;;
62574;SDS011;70119;45.638;11.714;2023-11-21T08:51:10;7.55;;;5.13;;
62574;SDS011;70119;45.638;11.714;2023-11-21T08:53:37;7.75;;;4.95;;
62574;SDS011;70119;45.638;11.714;2023-11-21T08:56:03;9.27;;;5.35;;
62574;SDS011;70119;45.638;11.714;2023-11-21T08:58:30;7.10;;;4.90;;
62574;SDS011;70119;45.638;11.714;2023-11-21T09:00:57;6.78;;;4.50;;
62574;SDS011;70119;45.638;11.714;2023-11-21T09:03:23;6.40;;;4.50;;
62574;SDS011;70119;45.638;11.714;2023-11-21T09:05:50;7.35;;;5.30;;
62574;SDS011;70119;45.638;11.714;2023-11-21T09:08:16;7.70;;;5.32;;
62574;SDS011;70119;45.638;11.714;2023-11-21T09:10:42;6.65;;;5.00;;
62574;SDS011;70119;45.638;11.714;2023-11-21T09:13:10;7.03;;;4.75;;
62574;SDS011;70119;45.638;11.714;2023-11-21T09:15:36;7.43;;;4.95;;
62574;SDS011;70119;45.638;11.714;2023-11-21T09:18:02;9.50;;;5.22;;
62574;SDS011;70119;45.638;11.714;2023-11-21T09:20:28;7.00;;;4.90;;
62574;SDS011;70119;45.638;11.714;2023-11-21T09:22:54;7.35;;;4.80;;
62574;SDS011;70119;45.638;11.714;2023-11-21T09:25:21;6.50;;;5.00;;
62574;SDS011;70119;45.638;11.714;2023-11-21T09:27:47;7.57;;;4.63;;
62574;SDS011;70119;45.638;11.714;2023-11-21T09:30:13;6.80;;;4.47;;
62574;SDS011;70119;45.638;11.714;2023-11-21T09:32:39;7.80;;;4.63;;
62574;SDS011;70119;45.638;11.714;2023-11-21T09:35:06;6.93;;;4.82;;
62574;SDS011;70119;45.638;11.714;2023-11-21T09:37:35;7.25;;;4.97;;
62574;SDS011;70119;45.638;11.714;2023-11-21T09:40:01;7.40;;;5.00;;
62574;SDS011;70119;45.638;11.714;2023-11-21T09:42:38;6.80;;;4.90;;
62574;SDS011;70119;45.638;11.714;2023-11-21T09:45:17;6.47;;;4.78;;
62574;SDS011;70119;45.638;11.714;2023-11-21T09:47:50;6.68;;;4.78;;
62574;SDS011;70119;45.638;11.714;2023-11-21T09:50:21;7.35;;;4.65;;
62574;SDS011;70119;45.638;11.714;2023-11-21T09:53:09;7.10;;;4.65;;
62574;SDS011;70119;45.638;11.714;2023-11-21T09:55:45;7.15;;;4.95;;
62574;SDS011;70119;45.638;11.714;2023-11-21T09:58:13;6.75;;;4.90;;
62574;SDS011;70119;45.638;11.714;2023-11-21T10:00:43;6.32;;;4.55;;
62574;SDS011;70119;45.638;11.714;2023-11-21T10:03:10;8.25;;;5.18;;
62574;SDS011;70119;45.638;11.714;2023-11-21T10:05:37;7.40;;;4.70;;
62574;SDS011;70119;45.638;11.714;2023-11-21T10:08:04;7.00;;;4.75;;
62574;SDS011;70119;45.638;11.714;2023-11-21T10:10:33;7.47;;;4.88;;
62574;SDS011;70119;45.638;11.714;2023-11-21T10:13:01;6.82;;;4.75;;
62574;SDS011;70119;45.638;11.714;2023-11-21T10:15:33;6.88;;;4.72;;
62574;SDS011;70119;45.638;11.714;2023-11-21T10:18:04;7.23;;;5.00;;
62574;SDS011;70119;45.638;11.714;2023-11-21T10:20:33;7.18;;;4.80;;
62574;SDS011;70119;45.638;11.714;2023-11-21T10:22:59;6.78;;;4.75;;
62574;SDS011;70119;45.638;11.714;2023-11-21T10:25:32;6.13;;;4.38;;
62574;SDS011;70119;45.638;11.714;2023-11-21T10:27:58;6.55;;;4.80;;
62574;SDS011;70119;45.638;11.714;2023-11-21T10:30:32;7.50;;;4.82;;
62574;SDS011;70119;45.638;11.714;2023-11-21T10:33:02;6.60;;;4.30;;
62574;SDS011;70119;45.638;11.714;2023-11-21T10:38:12;6.97;;;4.85;;
62574;SDS011;70119;45.638;11.714;2023-11-21T10:40:40;7.53;;;5.10;;
62574;SDS011;70119;45.638;11.714;2023-11-21T10:43:07;7.60;;;4.90;;
62574;SDS011;70119;45.638;11.714;2023-11-21T10:45:40;7.20;;;4.90;;
62574;SDS011;70119;45.638;11.714;2023-11-21T10:48:10;6.25;;;4.45;;
62574;SDS011;70119;45.638;11.714;2023-11-21T10:50:46;6.28;;;4.47;;
62574;SDS011;70119;45.638;11.714;2023-11-21T10:53:13;6.60;;;4.78;;
62574;SDS011;70119;45.638;11.714;2023-11-21T10:55:39;7.95;;;4.88;;
62574;SDS011;70119;45.638;11.714;2023-11-21T10:58:05;6.63;;;5.28;;
62574;SDS011;70119;45.638;11.714;2023-11-21T11:00:32;7.68;;;5.20;;
62574;SDS011;70119;45.638;11.714;2023-11-21T11:02:59;8.20;;;5.60;;
62574;SDS011;70119;45.638;11.714;2023-11-21T11:05:26;8.55;;;5.60;;
62574;SDS011;70119;45.638;11.714;2023-11-21T11:08:01;7.95;;;5.40;;
62574;SDS011;70119;45.638;11.714;2023-11-21T11:10:29;8.10;;;5.82;;
62574;SDS011;70119;45.638;11.714;2023-11-21T11:12:56;8.07;;;5.70;;
62574;SDS011;70119;45.638;11.714;2023-11-21T11:15:24;8.38;;;6.03;;
62574;SDS011;70119;45.638;11.714;2023-11-21T11:17:52;8.55;;;5.90;;
62574;SDS011;70119;45.638;11.714;2023-11-21T11:20:22;9.02;;;6.25;;
62574;SDS011;70119;45.638;11.714;2023-11-21T11:23:04;8.80;;;6.80;;
62574;SDS011;70119;45.638;11.714;2023-11-21T11:39:26;17.73;;;7.40;;
62574;SDS011;70119;45.638;11.714;2023-11-21T11:42:14;10.00;;;7.63;;
62574;SDS011;70119;45.638;11.714;2023-11-21T11:47:20;11.68;;;7.65;;
62574;SDS011;70119;45.638;11.714;2023-11-21T11:52:46;9.25;;;7.20;;
62574;SDS011;70119;45.638;11.714;2023-11-21T11:55:16;10.90;;;7.13;;
62574;SDS011;70119;45.638;11.714;2023-11-21T11:57:47;8.25;;;6.72;;
62574;SDS011;70119;45.638;11.714;2023-11-21T12:00:33;9.95;;;6.85;;
62574;SDS011;70119;45.638;11.714;2023-11-21T12:03:02;8.80;;;6.82;;
62574;SDS011;70119;45.638;11.714;2023-11-21T12:05:31;9.73;;;6.65;;
62574;SDS011;70119;45.638;11.714;2023-11-21T12:08:04;9.65;;;6.85;;
62574;SDS011;70119;45.638;11.714;2023-11-21T12:10:32;8.90;;;6.95;;
62574;SDS011;70119;45.638;11.714;2023-11-21T12:13:00;9.63;;;6.82;;
62574;SDS011;70119;45.638;11.714;2023-11-21T12:15:27;9.95;;;6.65;;
62574;SDS011;70119;45.638;11.714;2023-11-21T12:17:55;8.93;;;6.45;;
62574;SDS011;70119;45.638;11.714;2023-11-21T12:20:23;8.70;;;6.38;;
62574;SDS011;70119;45.638;11.714;2023-11-21T12:22:51;8.25;;;6.50;;
62574;SDS011;70119;45.638;11.714;2023-11-21T12:25:21;9.77;;;6.63;;
62574;SDS011;70119;45.638;11.714;2023-11-21T12:27:49;8.68;;;6.38;;
62574;SDS011;70119;45.638;11.714;2023-11-21T12:30:19;8.48;;;6.50;;
62574;SDS011;70119;45.638;11.714;2023-11-21T12:32:53;9.00;;;6.47;;
62574;SDS011;70119;45.638;11.714;2023-11-21T12:35:21;8.13;;;6.25;;
62574;SDS011;70119;45.638;11.714;2023-11-21T12:37:49;8.10;;;6.30;;
62574;SDS011;70119;45.638;11.714;2023-11-21T12:40:17;8.52;;;6.35;;
62574;SDS011;70119;45.638;11.714;2023-11-21T12:42:45;9.98;;;6.60;;
62574;SDS011;70119;45.638;11.714;2023-11-21T12:47:45;8.80;;;6.40;;
62574;SDS011;70119;45.638;11.714;2023-11-21T12:50:14;9.88;;;6.78;;
62574;SDS011;70119;45.638;11.714;2023-11-21T12:52:46;8.85;;;6.65;;
62574;SDS011;70119;45.638;11.714;2023-11-21T12:55:19;8.38;;;6.30;;
62574;SDS011;70119;45.638;11.714;2023-11-21T12:57:50;9.40;;;6.85;;
62574;SDS011;70119;45.638;11.714;2023-11-21T13:00:19;8.80;;;6.30;;
62574;SDS011;70119;45.638;11.714;2023-11-21T13:02:55;9.07;;;6.40;;
62574;SDS011;70119;45.638;11.714;2023-11-21T13:05:25;9.23;;;6.38;;
62574;SDS011;70119;45.638;11.714;2023-11-21T13:08:04;9.52;;;6.65;;
62574;SDS011;70119;45.638;11.714;2023-11-21T13:10:33;8.15;;;6.18;;
62574;SDS011;70119;45.638;11.714;2023-11-21T13:13:02;9.52;;;6.97;;
62574;SDS011;70119;45.638;11.714;2023-11-21T13:15:31;11.30;;;6.55;;
62574;SDS011;70119;45.638;11.714;2023-11-21T13:18:01;9.23;;;6.95;;
62574;SDS011;70119;45.638;11.714;2023-11-21T13:20:29;10.38;;;7.35;;
62574;SDS011;70119;45.638;11.714;2023-11-21T13:22:56;8.65;;;7.00;;
62574;SDS011;70119;45.638;11.714;2023-11-21T13:25:24;9.77;;;7.32;;
62574;SDS011;70119;45.638;11.714;2023-11-21T13:27:53;9.38;;;7.35;;
62574;SDS011;70119;45.638;11.714;2023-11-21T13:30:22;10.10;;;7.43;;
62574;SDS011;70119;45.638;11.714;2023-11-21T13:32:55;10.40;;;7.55;;
62574;SDS011;70119;45.638;11.714;2023-11-21T13:35:23;11.35;;;7.65;;
62574;SDS011;70119;45.638;11.714;2023-11-21T13:38:03;11.85;;;7.80;;
62574;SDS011;70119;45.638;11.714;2023-11-21T13:40:31;10.82;;;7.80;;
62574;SDS011;70119;45.638;11.714;2023-11-21T13:43:00;11.00;;;8.13;;
62574;SDS011;70119;45.638;11.714;2023-11-21T13:45:29;12.55;;;8.05;;
62574;SDS011;70119;45.638;11.714;2023-11-21T13:47:56;10.02;;;7.45;;
62574;SDS011;70119;45.638;11.714;2023-11-21T13:50:24;9.85;;;7.50;;
62574;SDS011;70119;45.638;11.714;2023-11-21T13:52:57;10.88;;;7.65;;
62574;SDS011;70119;45.638;11.714;2023-11-21T13:55:29;10.57;;;7.38;;
62574;SDS011;70119;45.638;11.714;2023-11-21T13:57:55;9.38;;;7.28;;
62574;SDS011;70119;45.638;11.714;2023-11-21T14:00:20;10.13;;;7.50;;
62574;SDS011;70119;45.638;11.714;2023-11-21T14:03:04;9.98;;;7.43;;
62574;SDS011;70119;45.638;11.714;2023-11-21T14:05:36;9.68;;;7.80;;
62574;SDS011;70119;45.638;11.714;2023-11-21T14:08:01;10.40;;;7.28;;
62574;SDS011;70119;45.638;11.714;2023-11-21T14:10:32;9.85;;;7.18;;
62574;SDS011;70119;45.638;11.714;2023-11-21T14:13:08;9.82;;;7.13;;
62574;SDS011;70119;45.638;11.714;2023-11-21T14:15:41;9.70;;;7.43;;
62574;SDS011;70119;45.638;11.714;2023-11-21T14:18:10;9.18;;;6.93;;
62574;SDS011;70119;45.638;11.714;2023-11-21T14:20:39;10.07;;;7.10;;
62574;SDS011;70119;45.638;11.714;2023-11-21T14:23:06;9.63;;;7.22;;
62574;SDS011;70119;45.638;11.714;2023-11-21T14:25:33;9.73;;;7.38;;
62574;SDS011;70119;45.638;11.714;2023-11-21T14:28:01;9.43;;;6.97;;
62574;SDS011;70119;45.638;11.714;2023-11-21T14:30:31;9.13;;;6.78;;
62574;SDS011;70119;45.638;11.714;2023-11-21T14:33:00;11.10;;;7.20;;
62574;SDS011;70119;45.638;11.714;2023-11-21T14:35:26;8.40;;;6.50;;
62574;SDS011;70119;45.638;11.714;2023-11-21T14:37:55;9.32;;;7.10;;
62574;SDS011;70119;45.638;11.714;2023-11-21T14:40:22;8.48;;;6.63;;
62574;SDS011;70119;45.638;11.714;2023-11-21T14:42:50;9.25;;;7.13;;
62574;SDS011;70119;45.638;11.714;2023-11-21T14:45:21;9.02;;;6.88;;
62574;SDS011;70119;45.638;11.714;2023-11-21T14:47:48;9.02;;;6.75;;
62574;SDS011;70119;45.638;11.714;2023-11-21T14:50:25;9.73;;;6.88;;
62574;SDS011;70119;45.638;11.714;2023-11-21T14:53:06;9.60;;;6.57;;
62574;SDS011;70119;45.638;11.714;2023-11-21T14:55:33;8.23;;;6.57;;
62574;SDS011;70119;45.638;11.714;2023-11-21T14:58:15;8.57;;;6.70;;
62574;SDS011;70119;45.638;11.714;2023-11-21T15:00:49;9.43;;;6.47;;
62574;SDS011;70119;45.638;11.714;2023-11-21T15:03:17;8.32;;;6.32;;